createdAt,value
2018-01-03T00:00:51.796Z,0
2018-01-03T00:02:02.031Z,0
2018-01-03T00:03:12.231Z,0
2018-01-03T00:04:23.394Z,0
2018-01-03T00:05:33.621Z,0
2018-01-03T00:06:43.788Z,0
2018-01-03T00:07:54.951Z,0
2018-01-03T00:09:05.175Z,0
2018-01-03T00:10:15.330Z,0
2018-01-03T00:11:25.530Z,0
2018-01-03T00:12:35.783Z,0
2018-01-03T00:13:45.983Z,0
2018-01-03T00:14:56.268Z,0
2018-01-03T00:16:06.456Z,0
2018-01-03T00:17:16.656Z,0
2018-01-03T00:18:26.904Z,0
2018-01-03T00:19:37.098Z,0
2018-01-03T00:20:47.282Z,0
2018-01-03T00:21:57.471Z,0
2018-01-03T00:23:07.656Z,0
2018-01-03T00:24:17.571Z,0
2018-01-03T00:25:27.521Z,0
2018-01-03T00:26:38.689Z,0
2018-01-03T00:27:48.850Z,0
2018-01-03T00:28:59.038Z,0
2018-01-03T00:30:09.228Z,0
2018-01-03T00:31:19.399Z,0
2018-01-03T00:32:29.344Z,0
2018-01-03T00:33:39.527Z,0
2018-01-03T00:34:49.717Z,0
2018-01-03T00:35:59.937Z,0
2018-01-03T00:37:10.118Z,0
2018-01-03T00:38:20.290Z,0
2018-01-03T00:39:30.455Z,0
2018-01-03T00:40:40.664Z,0
2018-01-03T00:41:50.899Z,0
2018-01-03T00:43:01.147Z,0
2018-01-03T00:44:11.358Z,0
2018-01-03T00:45:21.567Z,0
2018-01-03T00:46:32.505Z,0
2018-01-03T00:47:42.690Z,0
2018-01-03T00:48:52.893Z,0
2018-01-03T00:50:03.091Z,0
2018-01-03T00:51:14.271Z,0
2018-01-03T00:52:24.486Z,0
2018-01-03T00:53:34.693Z,0
2018-01-03T00:54:45.843Z,0
2018-01-03T00:55:55.746Z,0
2018-01-03T00:57:05.373Z,0
2018-01-03T00:58:15.278Z,0
2018-01-03T00:59:25.183Z,0
2018-01-03T01:00:35.468Z,0
2018-01-03T01:01:45.382Z,0
2018-01-03T01:02:55.561Z,0
2018-01-03T01:04:05.734Z,0
2018-01-03T01:05:15.956Z,0
2018-01-03T01:06:26.139Z,0
2018-01-03T01:07:36.040Z,0
2018-01-03T01:08:46.225Z,0
2018-01-03T01:09:56.401Z,0
2018-01-03T01:11:06.605Z,0
2018-01-03T01:12:16.799Z,0
2018-01-03T01:13:26.986Z,0
2018-01-03T01:14:37.146Z,0
2018-01-03T01:15:47.391Z,0
2018-01-03T01:16:57.610Z,0
2018-01-03T01:18:07.677Z,0
2018-01-03T01:19:17.921Z,0
2018-01-03T01:20:28.132Z,0
2018-01-03T01:21:38.436Z,0
2018-01-03T01:22:48.241Z,0
2018-01-03T01:23:58.416Z,0
2018-01-03T01:25:08.603Z,0
2018-01-03T01:26:18.846Z,0
2018-01-03T01:27:29.025Z,0
2018-01-03T01:28:39.229Z,0
2018-01-03T01:29:49.385Z,0
2018-01-03T01:30:59.558Z,0
2018-01-03T01:32:09.726Z,0
2018-01-03T01:33:19.886Z,0
2018-01-03T01:34:29.611Z,0
2018-01-03T01:35:39.781Z,0
2018-01-03T01:36:49.862Z,0
2018-01-03T01:38:00.126Z,0
2018-01-03T01:39:10.330Z,0
2018-01-03T01:40:20.525Z,0
2018-01-03T01:41:30.739Z,0
2018-01-03T01:42:40.921Z,0
2018-01-03T01:43:51.160Z,0
2018-01-03T01:45:01.341Z,0
2018-01-03T01:46:11.526Z,0
2018-01-03T01:47:21.682Z,0
2018-01-03T01:48:31.846Z,0
2018-01-03T01:49:42.038Z,0
2018-01-03T01:50:52.217Z,0
2018-01-03T01:52:02.387Z,0
2018-01-03T01:53:12.566Z,0
2018-01-03T01:54:22.729Z,0
2018-01-03T01:55:32.899Z,0
2018-01-03T01:56:43.114Z,0
2018-01-03T01:57:53.419Z,0
2018-01-03T01:59:03.683Z,0
2018-01-03T02:00:13.850Z,0
2018-01-03T02:01:23.758Z,0
2018-01-03T02:02:33.956Z,0
2018-01-03T02:03:44.168Z,0
2018-01-03T02:04:54.309Z,0
2018-01-03T02:06:04.473Z,0
2018-01-03T02:07:14.368Z,0
2018-01-03T02:08:24.521Z,0
2018-01-03T02:09:34.677Z,0
2018-01-03T02:10:44.905Z,0
2018-01-03T02:11:55.068Z,0
2018-01-03T02:13:05.259Z,0
2018-01-03T02:14:15.473Z,0
2018-01-03T02:15:25.901Z,0
2018-01-03T02:16:36.084Z,0
2018-01-03T02:17:46.275Z,0
2018-01-03T02:18:56.194Z,0
2018-01-03T02:20:06.363Z,0
2018-01-03T02:21:16.523Z,0
2018-01-03T02:22:26.685Z,0
2018-01-03T02:23:36.862Z,0
2018-01-03T02:24:47.045Z,0
2018-01-03T02:25:57.235Z,0
2018-01-03T02:27:07.137Z,0
2018-01-03T02:28:17.295Z,0
2018-01-03T02:29:27.226Z,0
2018-01-03T02:30:37.386Z,0
2018-01-03T02:31:47.572Z,0
2018-01-03T02:32:57.737Z,0
2018-01-03T02:34:07.628Z,0
2018-01-03T02:35:17.825Z,0
2018-01-03T02:36:28.056Z,0
2018-01-03T02:37:38.229Z,0
2018-01-03T02:38:48.398Z,0
2018-01-03T02:39:58.555Z,0
2018-01-03T02:41:08.736Z,0
2018-01-03T02:42:18.892Z,0
2018-01-03T02:43:29.079Z,0
2018-01-03T02:44:39.310Z,0
2018-01-03T02:45:49.381Z,0
2018-01-03T02:46:59.541Z,0
2018-01-03T02:48:09.724Z,0
2018-01-03T02:49:19.629Z,0
2018-01-03T02:50:29.841Z,0
2018-01-03T02:51:40.056Z,0
2018-01-03T02:52:50.236Z,0
2018-01-03T02:54:00.403Z,0
2018-01-03T02:55:10.581Z,0
2018-01-03T02:56:20.752Z,0
2018-01-03T02:57:30.908Z,0
2018-01-03T02:58:41.066Z,0
2018-01-03T02:59:51.325Z,0
2018-01-03T03:01:01.512Z,0
2018-01-03T03:02:11.705Z,0
2018-01-03T03:03:21.917Z,0
2018-01-03T03:04:32.142Z,0
2018-01-03T03:05:42.336Z,0
2018-01-03T03:06:52.502Z,0
2018-01-03T03:08:02.675Z,0
2018-01-03T03:09:12.894Z,0
2018-01-03T03:10:22.793Z,0
2018-01-03T03:11:32.951Z,0
2018-01-03T03:12:43.114Z,0
2018-01-03T03:13:53.330Z,0
2018-01-03T03:15:03.235Z,0
2018-01-03T03:16:13.491Z,0
2018-01-03T03:17:23.654Z,0
2018-01-03T03:18:33.842Z,0
2018-01-03T03:19:44.016Z,0
2018-01-03T03:20:54.232Z,0
2018-01-03T03:22:04.497Z,0
2018-01-03T03:23:14.674Z,0
2018-01-03T03:24:24.953Z,0
2018-01-03T03:25:35.154Z,0
2018-01-03T03:26:46.476Z,0
2018-01-03T03:27:56.668Z,0
2018-01-03T03:29:06.810Z,0
2018-01-03T03:30:17.019Z,0
2018-01-03T03:31:27.007Z,0
2018-01-03T03:32:37.164Z,0
2018-01-03T03:33:47.356Z,0
2018-01-03T03:34:57.517Z,0
2018-01-03T03:36:07.698Z,0
2018-01-03T03:37:17.967Z,0
2018-01-03T03:38:28.152Z,0
2018-01-03T03:39:38.347Z,0
2018-01-03T03:40:48.506Z,0
2018-01-03T03:41:58.694Z,0
2018-01-03T03:43:08.874Z,0
2018-01-03T03:44:19.099Z,0
2018-01-03T03:45:30.233Z,0
2018-01-03T03:46:40.401Z,0
2018-01-03T03:47:50.571Z,0
2018-01-03T03:49:00.724Z,0
2018-01-03T03:50:10.874Z,0
2018-01-03T03:51:21.033Z,0
2018-01-03T03:52:31.303Z,0
2018-01-03T03:53:41.526Z,0
2018-01-03T03:54:51.730Z,0
2018-01-03T03:56:01.694Z,0
2018-01-03T03:57:12.828Z,0
2018-01-03T03:58:22.990Z,0
2018-01-03T03:59:33.164Z,0
2018-01-03T04:00:43.344Z,0
2018-01-03T04:01:53.505Z,0
2018-01-03T04:03:03.671Z,0
2018-01-03T04:04:13.882Z,0
2018-01-03T04:05:24.107Z,0
2018-01-03T04:06:34.397Z,0
2018-01-03T04:07:44.669Z,0
2018-01-03T04:08:54.556Z,0
2018-01-03T04:10:04.720Z,0
2018-01-03T04:11:14.928Z,0
2018-01-03T04:12:25.193Z,0
2018-01-03T04:13:35.357Z,0
2018-01-03T04:14:45.509Z,0
2018-01-03T04:15:55.758Z,0
2018-01-03T04:17:05.905Z,0
2018-01-03T04:18:16.063Z,0
2018-01-03T04:19:26.331Z,0
2018-01-03T04:20:36.547Z,0
2018-01-03T04:21:46.774Z,0
2018-01-03T04:22:57.909Z,0
2018-01-03T04:24:08.086Z,0
2018-01-03T04:25:18.280Z,0
2018-01-03T04:26:28.435Z,0
2018-01-03T04:27:38.596Z,0
2018-01-03T04:28:48.756Z,0
2018-01-03T04:29:58.923Z,0
2018-01-03T04:31:09.103Z,0
2018-01-03T04:32:19.307Z,0
2018-01-03T04:33:29.515Z,0
2018-01-03T04:34:39.652Z,0
2018-01-03T04:35:49.971Z,0
2018-01-03T04:36:59.864Z,0
2018-01-03T04:38:09.765Z,0
2018-01-03T04:39:19.291Z,0
2018-01-03T04:40:29.453Z,0
2018-01-03T04:41:39.633Z,0
2018-01-03T04:42:49.805Z,0
2018-01-03T04:44:00.042Z,0
2018-01-03T04:45:10.298Z,0
2018-01-03T04:46:20.459Z,0
2018-01-03T04:47:30.618Z,0
2018-01-03T04:48:40.903Z,0
2018-01-03T04:49:51.105Z,0
2018-01-03T04:51:01.324Z,0
2018-01-03T04:52:11.248Z,0
2018-01-03T04:53:21.415Z,0
2018-01-03T04:54:31.589Z,0
2018-01-03T04:55:41.508Z,0
2018-01-03T04:56:51.668Z,0
2018-01-03T04:58:01.863Z,0
2018-01-03T04:59:12.010Z,0
2018-01-03T05:00:22.188Z,0
2018-01-03T05:01:32.394Z,0
2018-01-03T05:02:42.660Z,0
2018-01-03T05:03:52.947Z,0
2018-01-03T05:05:04.070Z,0
2018-01-03T05:06:14.280Z,0
2018-01-03T05:07:24.514Z,0
2018-01-03T05:08:34.359Z,0
2018-01-03T05:09:44.523Z,0
2018-01-03T05:10:54.810Z,0
2018-01-03T05:12:04.985Z,0
2018-01-03T05:13:14.897Z,0
2018-01-03T05:14:25.085Z,0
2018-01-03T05:15:35.245Z,0
2018-01-03T05:16:45.418Z,0
2018-01-03T05:17:55.577Z,0
2018-01-03T05:19:05.766Z,0
2018-01-03T05:20:15.946Z,0
2018-01-03T05:21:26.218Z,0
2018-01-03T05:22:36.380Z,0
2018-01-03T05:23:46.298Z,0
2018-01-03T05:24:56.184Z,0
2018-01-03T05:26:06.399Z,0
2018-01-03T05:27:16.306Z,0
2018-01-03T05:28:26.459Z,0
2018-01-03T05:29:36.727Z,0
2018-01-03T05:30:46.969Z,0
2018-01-03T05:31:57.172Z,0
2018-01-03T05:33:07.086Z,0
2018-01-03T05:34:17.250Z,0
2018-01-03T05:35:27.425Z,0
2018-01-03T05:36:37.308Z,0
2018-01-03T05:37:47.476Z,0
2018-01-03T05:38:57.717Z,0
2018-01-03T05:40:07.902Z,0
2018-01-03T05:41:18.095Z,0
2018-01-03T05:42:28.258Z,0
2018-01-03T05:43:39.424Z,0
2018-01-03T05:44:49.677Z,0
2018-01-03T05:45:59.837Z,0
2018-01-03T05:47:10.079Z,0
2018-01-03T05:48:20.047Z,0
2018-01-03T05:49:29.948Z,0
2018-01-03T05:50:40.123Z,0
2018-01-03T05:51:50.309Z,0
2018-01-03T05:53:00.578Z,0
2018-01-03T05:54:10.471Z,0
2018-01-03T05:55:20.637Z,0
2018-01-03T05:56:30.564Z,0
2018-01-03T05:57:40.111Z,0
2018-01-03T05:58:50.493Z,0
2018-01-03T06:00:01.033Z,0
2018-01-03T06:01:11.703Z,0
2018-01-03T06:02:23.595Z,0
2018-01-03T06:03:34.245Z,0
2018-01-03T06:04:44.350Z,0
2018-01-03T06:05:54.492Z,0
2018-01-03T06:07:04.862Z,0
2018-01-03T06:08:15.000Z,0
2018-01-03T06:09:25.366Z,0
2018-01-03T06:10:35.484Z,0
2018-01-03T06:11:46.881Z,0
2018-01-03T06:12:57.269Z,0
2018-01-03T06:14:06.051Z,0
2018-01-03T06:15:17.645Z,0
2018-01-03T06:16:27.751Z,0
2018-01-03T06:17:37.860Z,0
2018-01-03T06:18:47.027Z,0
2018-01-03T06:19:57.157Z,0
2018-01-03T06:21:08.750Z,0
2018-01-03T06:22:18.890Z,0
2018-01-03T06:23:28.048Z,0
2018-01-03T06:24:39.390Z,0
2018-01-03T06:25:49.506Z,0
2018-01-03T06:27:01.448Z,0
2018-01-03T06:28:11.572Z,0
2018-01-03T06:29:21.946Z,0
2018-01-03T06:30:32.605Z,0
2018-01-03T06:31:43.071Z,0
2018-01-03T06:32:53.701Z,0
2018-01-03T06:34:04.082Z,0
2018-01-03T06:35:14.601Z,0
2018-01-03T06:36:24.977Z,0
2018-01-03T06:37:35.414Z,0
2018-01-03T06:38:45.529Z,0
2018-01-03T06:39:56.183Z,0
2018-01-03T06:41:08.852Z,0
2018-01-03T06:42:19.317Z,0
2018-01-03T06:43:29.693Z,0
2018-01-03T06:44:39.823Z,0
2018-01-03T06:45:50.201Z,0
2018-01-03T06:47:01.540Z,0
2018-01-03T06:48:13.178Z,0
2018-01-03T06:49:23.270Z,0
2018-01-03T06:50:33.382Z,0
2018-01-03T06:51:43.507Z,0
2018-01-03T06:52:54.145Z,0
2018-01-03T06:54:04.260Z,0
2018-01-03T06:55:14.360Z,0
2018-01-03T06:56:24.791Z,0
2018-01-03T06:57:36.403Z,4
2018-01-03T06:58:47.129Z,4
2018-01-03T06:59:55.929Z,0
2018-01-03T07:01:06.886Z,4
2018-01-03T07:02:16.028Z,4
2018-01-03T07:03:26.152Z,8
2018-01-03T07:04:36.248Z,8
2018-01-03T07:05:48.828Z,8
2018-01-03T07:06:59.233Z,12
2018-01-03T07:08:09.337Z,12
2018-01-03T07:09:18.488Z,12
2018-01-03T07:10:27.724Z,12
2018-01-03T07:11:38.099Z,16
2018-01-03T07:12:49.760Z,20
2018-01-03T07:14:00.157Z,20
2018-01-03T07:15:10.292Z,24
2018-01-03T07:16:21.654Z,28
2018-01-03T07:17:31.760Z,36
2018-01-03T07:18:42.171Z,40
2018-01-03T07:19:52.678Z,44
2018-01-03T07:21:03.062Z,44
2018-01-03T07:22:14.976Z,48
2018-01-03T07:23:25.639Z,48
2018-01-03T07:24:36.002Z,56
2018-01-03T07:25:48.607Z,68
2018-01-03T07:26:58.988Z,72
2018-01-03T07:28:07.781Z,80
2018-01-03T07:29:18.172Z,100
2018-01-03T07:30:28.692Z,120
2018-01-03T07:31:39.341Z,132
2018-01-03T07:32:49.553Z,144
2018-01-03T07:33:59.671Z,156
2018-01-03T07:35:09.800Z,160
2018-01-03T07:36:20.170Z,160
2018-01-03T07:37:31.776Z,144
2018-01-03T07:38:41.877Z,144
2018-01-03T07:39:52.035Z,152
2018-01-03T07:41:03.414Z,180
2018-01-03T07:42:13.801Z,228
2018-01-03T07:43:23.905Z,276
2018-01-03T07:44:34.007Z,308
2018-01-03T07:45:43.668Z,340
2018-01-03T07:46:53.811Z,392
2018-01-03T07:48:03.944Z,460
2018-01-03T07:49:14.043Z,536
2018-01-03T07:50:24.456Z,600
2018-01-03T07:51:33.324Z,628
2018-01-03T07:52:43.438Z,628
2018-01-03T07:53:53.813Z,612
2018-01-03T07:55:04.198Z,644
2018-01-03T07:56:14.606Z,660
2018-01-03T07:57:23.419Z,660
2018-01-03T07:58:32.576Z,668
2018-01-03T07:59:41.460Z,680
2018-01-03T08:00:51.775Z,712
2018-01-03T08:02:02.425Z,756
2018-01-03T08:03:13.393Z,828
2018-01-03T08:04:24.310Z,936
2018-01-03T08:05:34.693Z,1052
2018-01-03T08:06:44.099Z,1180
2018-01-03T08:07:54.219Z,1332
2018-01-03T08:09:04.325Z,1372
2018-01-03T08:10:14.252Z,1328
2018-01-03T08:11:25.869Z,1288
2018-01-03T08:12:36.005Z,1268
2018-01-03T08:13:45.155Z,1244
2018-01-03T08:14:57.762Z,1172
2018-01-03T08:16:08.170Z,1088
2018-01-03T08:17:18.294Z,948
2018-01-03T08:18:27.169Z,832
2018-01-03T08:19:37.354Z,736
2018-01-03T08:20:47.562Z,676
2018-01-03T08:21:56.365Z,680
2018-01-03T08:23:06.870Z,760
2018-01-03T08:24:17.332Z,904
2018-01-03T08:25:27.720Z,1072
2018-01-03T08:26:37.840Z,1188
2018-01-03T08:27:47.269Z,1276
2018-01-03T08:28:58.446Z,1336
2018-01-03T08:30:08.404Z,1344
2018-01-03T08:31:19.654Z,1356
2018-01-03T08:32:30.828Z,1344
2018-01-03T08:33:43.187Z,1388
2018-01-03T08:34:53.104Z,1420
2018-01-03T08:36:03.420Z,1472
2018-01-03T08:37:13.362Z,1492
2018-01-03T08:38:23.307Z,1500
2018-01-03T08:39:33.650Z,1576
2018-01-03T08:40:43.659Z,1664
2018-01-03T08:41:53.631Z,1656
2018-01-03T08:43:03.386Z,1764
2018-01-03T08:44:13.306Z,1980
2018-01-03T08:45:23.235Z,2152
2018-01-03T08:46:34.419Z,2156
2018-01-03T08:47:44.638Z,2224
2018-01-03T08:48:54.841Z,2164
2018-01-03T08:50:05.262Z,2184
2018-01-03T08:51:15.196Z,2228
2018-01-03T08:52:26.366Z,2252
2018-01-03T08:53:36.324Z,2304
2018-01-03T08:54:46.273Z,2504
2018-01-03T08:55:56.455Z,2812
2018-01-03T08:57:07.645Z,2732
2018-01-03T08:58:17.859Z,2436
2018-01-03T08:59:28.071Z,2356
2018-01-03T09:00:38.275Z,2588
2018-01-03T09:01:48.511Z,2700
2018-01-03T09:04:02.448Z,2676
2018-01-03T09:05:44.182Z,2600
2018-01-03T09:06:54.390Z,2608
2018-01-03T09:08:04.606Z,2676
2018-01-03T09:09:14.787Z,2692
2018-01-03T09:10:24.993Z,2736
2018-01-03T09:11:35.166Z,2868
2018-01-03T09:12:45.404Z,2984
2018-01-03T09:13:55.624Z,3104
2018-01-03T09:15:05.917Z,3280
2018-01-03T09:16:16.144Z,3404
2018-01-03T09:17:26.392Z,3556
2018-01-03T09:18:36.594Z,3708
2018-01-03T09:19:46.597Z,3576
2018-01-03T09:20:56.890Z,3448
2018-01-03T09:22:07.103Z,3540
2018-01-03T09:23:17.318Z,3744
2018-01-03T09:24:27.531Z,3928
2018-01-03T09:25:38.722Z,3948
2018-01-03T09:26:48.994Z,3912
2018-01-03T09:27:59.239Z,3972
2018-01-03T09:29:09.460Z,4108
2018-01-03T09:30:19.675Z,4368
2018-01-03T09:31:29.891Z,4676
2018-01-03T09:32:40.101Z,4808
2018-01-03T09:33:50.303Z,4728
2018-01-03T09:35:00.496Z,4464
2018-01-03T09:36:10.710Z,3952
2018-01-03T09:37:21.032Z,3668
2018-01-03T09:38:31.240Z,3904
2018-01-03T09:39:41.453Z,4224
2018-01-03T09:40:51.652Z,4324
2018-01-03T09:42:01.874Z,4380
2018-01-03T09:43:11.850Z,4504
2018-01-03T09:44:22.108Z,4572
2018-01-03T09:45:32.038Z,4692
2018-01-03T09:46:42.296Z,4788
2018-01-03T09:47:52.485Z,4996
2018-01-03T09:49:02.725Z,5192
2018-01-03T09:50:13.060Z,5236
2018-01-03T09:51:23.272Z,5168
2018-01-03T09:52:33.458Z,4976
2018-01-03T09:53:43.647Z,4776
2018-01-03T09:54:53.862Z,4608
2018-01-03T09:56:04.065Z,4576
2018-01-03T09:57:15.304Z,4720
2018-01-03T09:58:25.513Z,5000
2018-01-03T09:59:35.725Z,5716
2018-01-03T10:00:45.935Z,6256
2018-01-03T10:01:56.142Z,6764
2018-01-03T10:03:06.373Z,6984
2018-01-03T10:04:16.572Z,8600
2018-01-03T10:05:26.839Z,8244
2018-01-03T10:06:36.863Z,8004
2018-01-03T10:07:47.087Z,8748
2018-01-03T10:08:57.343Z,10452
2018-01-03T10:10:07.661Z,15776
2018-01-03T10:11:17.914Z,15232
2018-01-03T10:12:59.932Z,7624
2018-01-03T10:14:41.948Z,11400
2018-01-03T10:15:51.930Z,14912
2018-01-03T10:17:03.127Z,7604
2018-01-03T10:18:13.480Z,7164
2018-01-03T10:19:23.919Z,6600
2018-01-03T10:21:05.954Z,6032
2018-01-03T10:22:47.992Z,5128
2018-01-03T10:23:58.212Z,4536
2018-01-03T10:25:08.433Z,3984
2018-01-03T10:26:18.653Z,3720
2018-01-03T10:27:28.896Z,3616
2018-01-03T10:28:39.146Z,3708
2018-01-03T10:29:49.349Z,3952
2018-01-03T10:30:59.561Z,4424
2018-01-03T10:32:09.760Z,4968
2018-01-03T10:33:19.998Z,5308
2018-01-03T10:34:30.210Z,5876
2018-01-03T10:35:40.446Z,5560
2018-01-03T10:36:50.415Z,4776
2018-01-03T10:38:00.675Z,3052
2018-01-03T10:39:10.697Z,1896
2018-01-03T10:40:20.656Z,1392
2018-01-03T10:41:31.015Z,1452
2018-01-03T10:42:41.239Z,1460
2018-01-03T10:43:51.493Z,1532
2018-01-03T10:45:01.728Z,2200
2018-01-03T10:46:11.953Z,2732
2018-01-03T10:47:22.180Z,3144
2018-01-03T10:48:32.394Z,3640
2018-01-03T10:49:42.620Z,4324
2018-01-03T10:50:52.836Z,3092
2018-01-03T10:52:03.088Z,2972
2018-01-03T10:53:13.272Z,2884
2018-01-03T10:54:23.494Z,3112
2018-01-03T10:55:33.756Z,3764
2018-01-03T10:56:43.972Z,4892
2018-01-03T10:57:53.993Z,6196
2018-01-03T10:59:04.308Z,7268
2018-01-03T11:00:14.568Z,6664
2018-01-03T11:01:24.894Z,4764
2018-01-03T11:02:35.158Z,3684
2018-01-03T11:03:45.354Z,6024
2018-01-03T11:04:55.584Z,6464
2018-01-03T11:06:05.832Z,5360
2018-01-03T11:07:16.077Z,6356
2018-01-03T11:08:26.301Z,6528
2018-01-03T11:09:36.576Z,7020
2018-01-03T11:10:46.808Z,7784
2018-01-03T11:11:56.777Z,10600
2018-01-03T11:13:07.043Z,18656
2018-01-03T11:14:17.259Z,31264
2018-01-03T11:15:27.480Z,12248
2018-01-03T11:16:37.771Z,39040
2018-01-03T11:17:48.017Z,39232
2018-01-03T11:18:58.299Z,37600
2018-01-03T11:20:08.374Z,40160
2018-01-03T11:21:19.584Z,41280
2018-01-03T11:22:29.829Z,12988
2018-01-03T11:23:40.095Z,15648
2018-01-03T11:24:50.317Z,39328
2018-01-03T11:26:00.533Z,40672
2018-01-03T11:27:10.777Z,41504
2018-01-03T11:28:21.021Z,41760
2018-01-03T11:29:31.278Z,11416
2018-01-03T11:30:41.508Z,39584
2018-01-03T11:31:51.719Z,36064
2018-01-03T11:33:01.979Z,41184
2018-01-03T11:34:12.229Z,36608
2018-01-03T11:35:22.463Z,24896
2018-01-03T11:36:32.737Z,21472
2018-01-03T11:37:43.074Z,22912
2018-01-03T11:38:53.301Z,22496
2018-01-03T11:40:03.261Z,17664
2018-01-03T11:41:13.522Z,10120
2018-01-03T11:42:23.747Z,13732
2018-01-03T11:43:33.966Z,8776
2018-01-03T11:44:44.292Z,10108
2018-01-03T11:45:54.584Z,8356
2018-01-03T11:47:04.816Z,5436
2018-01-03T11:48:15.085Z,6168
2018-01-03T11:49:25.338Z,4708
2018-01-03T11:50:35.577Z,5040
2018-01-03T11:51:45.887Z,5224
2018-01-03T11:52:56.139Z,4568
2018-01-03T11:54:06.103Z,4292
2018-01-03T11:55:16.344Z,5664
2018-01-03T11:56:26.605Z,6472
2018-01-03T11:57:36.582Z,7140
2018-01-03T11:58:46.794Z,6068
2018-01-03T11:59:57.055Z,8296
2018-01-03T12:01:07.305Z,8524
2018-01-03T12:02:17.566Z,6328
2018-01-03T12:03:27.910Z,8088
2018-01-03T12:04:38.247Z,7680
2018-01-03T12:05:48.482Z,7632
2018-01-03T12:06:58.700Z,7628
2018-01-03T12:08:08.915Z,8136
2018-01-03T12:09:19.179Z,7328
2018-01-03T12:10:29.416Z,7240
2018-01-03T12:11:39.659Z,7556
2018-01-03T12:12:49.891Z,7568
2018-01-03T12:14:00.146Z,7876
2018-01-03T12:15:10.417Z,9972
2018-01-03T12:16:20.641Z,8804
2018-01-03T12:17:30.841Z,9844
2018-01-03T12:18:41.068Z,9456
2018-01-03T12:19:51.316Z,8804
2018-01-03T12:21:01.536Z,8808
2018-01-03T12:22:11.761Z,8372
2018-01-03T12:23:21.977Z,10072
2018-01-03T12:24:32.191Z,10224
2018-01-03T12:25:42.407Z,9308
2018-01-03T12:26:52.641Z,9548
2018-01-03T12:28:03.822Z,8820
2018-01-03T12:29:45.742Z,10376
2018-01-03T12:30:55.753Z,9872
2018-01-03T12:32:37.792Z,10908
2018-01-03T12:33:48.032Z,11448
2018-01-03T12:35:30.055Z,9668
2018-01-03T12:37:22.432Z,9412
2018-01-03T12:38:32.682Z,6268
2018-01-03T12:39:42.925Z,5448
2018-01-03T12:40:53.160Z,5504
2018-01-03T12:42:03.406Z,5760
2018-01-03T12:43:13.632Z,5816
2018-01-03T12:44:23.641Z,6496
2018-01-03T12:45:33.887Z,5740
2018-01-03T12:46:44.145Z,5748
2018-01-03T12:47:54.422Z,6032
2018-01-03T12:49:05.706Z,5024
2018-01-03T12:50:15.683Z,4776
2018-01-03T12:51:26.047Z,4792
2018-01-03T12:52:36.333Z,4948
2018-01-03T12:53:46.687Z,4936
2018-01-03T12:54:56.982Z,4760
2018-01-03T12:56:07.193Z,4764
2018-01-03T12:57:17.413Z,4628
2018-01-03T12:58:27.690Z,4312
2018-01-03T12:59:37.923Z,4580
2018-01-03T13:00:48.120Z,4540
2018-01-03T13:01:58.383Z,4160
2018-01-03T13:03:08.678Z,3868
2018-01-03T13:04:19.124Z,4080
2018-01-03T13:05:29.415Z,4268
2018-01-03T13:06:39.665Z,4488
2018-01-03T13:07:49.939Z,4212
2018-01-03T13:09:00.174Z,4208
2018-01-03T13:10:10.417Z,4324
2018-01-03T13:11:20.623Z,4344
2018-01-03T13:12:30.849Z,4224
2018-01-03T13:13:41.069Z,4004
2018-01-03T13:14:51.479Z,3660
2018-01-03T13:16:01.289Z,3288
2018-01-03T13:17:12.528Z,2984
2018-01-03T13:18:22.751Z,2856
2018-01-03T13:19:33.004Z,2848
2018-01-03T13:20:43.247Z,2912
2018-01-03T13:21:53.501Z,2992
2018-01-03T13:23:03.755Z,3060
2018-01-03T13:24:13.997Z,3124
2018-01-03T13:25:24.240Z,3100
2018-01-03T13:26:34.446Z,2952
2018-01-03T13:27:44.660Z,2836
2018-01-03T13:28:54.890Z,2772
2018-01-03T13:30:05.158Z,2636
2018-01-03T13:31:14.897Z,2540
2018-01-03T13:32:25.115Z,2472
2018-01-03T13:33:35.388Z,2372
2018-01-03T13:34:45.715Z,2400
2018-01-03T13:35:56.005Z,2464
2018-01-03T13:37:06.233Z,2432
2018-01-03T13:38:16.461Z,2248
2018-01-03T13:39:26.734Z,1884
2018-01-03T13:40:36.956Z,1464
2018-01-03T13:41:47.227Z,1112
2018-01-03T13:42:57.479Z,920
2018-01-03T13:44:07.719Z,1052
2018-01-03T13:45:17.928Z,1156
2018-01-03T13:46:28.151Z,1424
2018-01-03T13:47:38.391Z,1472
2018-01-03T13:48:48.641Z,1356
2018-01-03T13:49:59.699Z,1684
2018-01-03T13:51:09.945Z,1956
2018-01-03T13:52:20.181Z,1732
2018-01-03T13:53:30.421Z,1568
2018-01-03T13:54:40.636Z,1456
2018-01-03T13:55:50.877Z,1584
2018-01-03T13:57:01.118Z,1636
2018-01-03T13:58:11.340Z,1660
2018-01-03T13:59:21.594Z,1548
2018-01-03T14:00:31.840Z,1656
2018-01-03T14:01:42.066Z,1556
2018-01-03T14:02:53.271Z,1440
2018-01-03T14:04:03.473Z,1476
2018-01-03T14:05:13.727Z,1508
2018-01-03T14:06:23.955Z,1436
2018-01-03T14:07:34.222Z,1216
2018-01-03T14:08:44.461Z,1168
2018-01-03T14:09:54.816Z,1292
2018-01-03T14:11:05.065Z,1104
2018-01-03T14:12:15.293Z,1308
2018-01-03T14:13:25.540Z,1256
2018-01-03T14:14:35.822Z,1104
2018-01-03T14:15:46.118Z,1024
2018-01-03T14:16:56.365Z,916
2018-01-03T14:18:06.585Z,880
2018-01-03T14:19:16.537Z,780
2018-01-03T14:20:26.837Z,728
2018-01-03T14:21:37.098Z,596
2018-01-03T14:22:47.348Z,640
2018-01-03T14:23:57.582Z,528
2018-01-03T14:25:07.846Z,552
2018-01-03T14:26:18.094Z,492
2018-01-03T14:27:28.437Z,552
2018-01-03T14:28:38.662Z,504
2018-01-03T14:29:49.666Z,400
2018-01-03T14:30:59.975Z,340
2018-01-03T14:32:10.205Z,272
2018-01-03T14:33:20.500Z,232
2018-01-03T14:34:30.793Z,212
2018-01-03T14:35:41.009Z,244
2018-01-03T14:36:51.247Z,220
2018-01-03T14:38:01.503Z,252
2018-01-03T14:39:11.910Z,228
2018-01-03T14:40:21.881Z,288
2018-01-03T14:41:32.118Z,272
2018-01-03T14:42:42.324Z,292
2018-01-03T14:43:52.545Z,252
2018-01-03T14:45:02.746Z,236
2018-01-03T14:46:13.042Z,268
2018-01-03T14:47:23.304Z,316
2018-01-03T14:48:33.310Z,292
2018-01-03T14:49:43.643Z,288
2018-01-03T14:50:53.877Z,360
2018-01-03T14:52:04.153Z,364
2018-01-03T14:53:14.536Z,352
2018-01-03T14:54:24.516Z,340
2018-01-03T14:55:34.761Z,368
2018-01-03T14:56:45.034Z,412
2018-01-03T14:57:54.995Z,384
2018-01-03T14:59:04.878Z,432
2018-01-03T15:00:15.146Z,432
2018-01-03T15:01:25.380Z,412
2018-01-03T15:02:35.645Z,360
2018-01-03T15:03:45.840Z,296
2018-01-03T15:04:56.081Z,272
2018-01-03T15:06:06.313Z,240
2018-01-03T15:07:16.627Z,224
2018-01-03T15:08:26.890Z,200
2018-01-03T15:09:38.150Z,176
2018-01-03T15:10:48.381Z,144
2018-01-03T15:11:58.620Z,144
2018-01-03T15:13:08.881Z,104
2018-01-03T15:14:19.578Z,88
2018-01-03T15:15:29.832Z,80
2018-01-03T15:16:40.096Z,72
2018-01-03T15:17:50.350Z,56
2018-01-03T15:19:00.680Z,68
2018-01-03T15:20:10.645Z,72
2018-01-03T15:21:20.970Z,68
2018-01-03T15:22:32.189Z,56
2018-01-03T15:23:42.469Z,32
2018-01-03T15:24:52.578Z,28
2018-01-03T15:26:02.849Z,28
2018-01-03T15:27:12.858Z,20
2018-01-03T15:28:22.847Z,16
2018-01-03T15:29:33.085Z,8
2018-01-03T15:30:43.352Z,8
2018-01-03T15:31:53.625Z,8
2018-01-03T15:33:03.831Z,4
2018-01-03T15:34:13.900Z,4
2018-01-03T15:35:24.164Z,4
2018-01-03T15:36:34.445Z,4
2018-01-03T15:37:44.664Z,4
2018-01-03T15:38:54.886Z,4
2018-01-03T15:40:04.827Z,0
2018-01-03T15:41:15.126Z,4
2018-01-03T15:42:25.764Z,0
2018-01-03T15:43:36.051Z,0
2018-01-03T15:44:48.270Z,0
2018-01-03T15:45:58.519Z,0
2018-01-03T15:47:08.534Z,0
2018-01-03T15:48:18.826Z,0
2018-01-03T15:49:29.186Z,0
2018-01-03T15:50:39.478Z,0
2018-01-03T15:51:49.497Z,0
2018-01-03T15:52:59.793Z,0
2018-01-03T15:54:10.092Z,0
2018-01-03T15:55:21.304Z,0
2018-01-03T15:56:31.544Z,0
2018-01-03T15:57:42.830Z,0
2018-01-03T15:58:53.075Z,0
2018-01-03T16:00:03.342Z,0
2018-01-03T16:01:13.587Z,0
2018-01-03T16:02:23.847Z,0
2018-01-03T16:03:33.830Z,0
2018-01-03T16:04:44.101Z,0
2018-01-03T16:05:54.146Z,0
2018-01-03T16:07:04.433Z,0
2018-01-03T16:08:15.446Z,0
2018-01-03T16:09:25.701Z,0
2018-01-03T16:10:35.863Z,0
2018-01-03T16:11:46.832Z,0
2018-01-03T16:12:57.162Z,0
2018-01-03T16:14:07.435Z,0
2018-01-03T16:15:17.706Z,0
2018-01-03T16:16:28.004Z,0
2018-01-03T16:17:38.327Z,0
2018-01-03T16:18:49.590Z,0
2018-01-03T16:19:59.978Z,0
2018-01-03T16:21:10.453Z,0
2018-01-03T16:22:20.720Z,0
2018-01-03T16:23:30.974Z,0
2018-01-03T16:24:41.268Z,0
2018-01-03T16:25:51.492Z,0
2018-01-03T16:27:01.811Z,0
2018-01-03T16:28:12.138Z,0
2018-01-03T16:29:22.202Z,0
2018-01-03T16:30:32.482Z,0
2018-01-03T16:31:42.724Z,0
2018-01-03T16:32:53.068Z,0
2018-01-03T16:34:04.117Z,0
2018-01-03T16:35:14.421Z,0